sensor_id;sensor_type;location;lat;lon;timestamp;P1;durP1;ratioP1;P2;durP2;ratioP2
24337;SDS011;12457;50.832;4.346;2022-09-29T00:00:36;22.20;;;12.63;;
24337;SDS011;12457;50.832;4.346;2022-09-29T00:03:03;25.67;;;13.45;;
24337;SDS011;12457;50.832;4.346;2022-09-29T00:05:29;22.23;;;13.75;;
24337;SDS011;12457;50.832;4.346;2022-09-29T00:07:55;23.30;;;12.20;;
24337;SDS011;12457;50.832;4.346;2022-09-29T00:10:20;17.88;;;12.52;;
24337;SDS011;12457;50.832;4.346;2022-09-29T00:12:47;26.80;;;13.20;;
24337;SDS011;12457;50.832;4.346;2022-09-29T00:15:13;17.25;;;12.45;;
24337;SDS011;12457;50.832;4.346;2022-09-29T00:17:39;21.65;;;12.13;;
24337;SDS011;12457;50.832;4.346;2022-09-29T00:20:05;17.90;;;11.48;;
24337;SDS011;12457;50.832;4.346;2022-09-29T00:22:31;19.83;;;11.23;;
24337;SDS011;12457;50.832;4.346;2022-09-29T00:24:56;16.55;;;10.68;;
24337;SDS011;12457;50.832;4.346;2022-09-29T00:27:22;18.67;;;11.35;;
24337;SDS011;12457;50.832;4.346;2022-09-29T00:29:48;20.17;;;11.00;;
24337;SDS011;12457;50.832;4.346;2022-09-29T00:32:13;14.23;;;10.38;;
24337;SDS011;12457;50.832;4.346;2022-09-29T00:34:39;16.73;;;9.65;;
24337;SDS011;12457;50.832;4.346;2022-09-29T00:37:05;16.15;;;9.90;;
24337;SDS011;12457;50.832;4.346;2022-09-29T00:39:30;18.23;;;8.98;;
24337;SDS011;12457;50.832;4.346;2022-09-29T00:41:56;15.50;;;9.20;;
24337;SDS011;12457;50.832;4.346;2022-09-29T00:47:08;21.08;;;8.93;;
24337;SDS011;12457;50.832;4.346;2022-09-29T00:49:44;16.77;;;8.70;;
24337;SDS011;12457;50.832;4.346;2022-09-29T00:52:13;16.67;;;9.48;;
24337;SDS011;12457;50.832;4.346;2022-09-29T00:54:52;18.45;;;9.27;;
24337;SDS011;12457;50.832;4.346;2022-09-29T00:57:25;17.38;;;9.32;;
24337;SDS011;12457;50.832;4.346;2022-09-29T01:02:27;23.17;;;10.73;;
24337;SDS011;12457;50.832;4.346;2022-09-29T01:04:55;20.17;;;10.80;;
24337;SDS011;12457;50.832;4.346;2022-09-29T01:07:22;17.20;;;10.45;;
24337;SDS011;12457;50.832;4.346;2022-09-29T01:09:49;16.40;;;11.07;;
24337;SDS011;12457;50.832;4.346;2022-09-29T01:12:18;20.85;;;10.98;;
24337;SDS011;12457;50.832;4.346;2022-09-29T01:14:44;19.95;;;11.60;;
24337;SDS011;12457;50.832;4.346;2022-09-29T01:17:11;20.80;;;12.05;;
24337;SDS011;12457;50.832;4.346;2022-09-29T01:28:40;28.50;;;11.13;;
24337;SDS011;12457;50.832;4.346;2022-09-29T01:42:28;21.80;;;12.32;;
24337;SDS011;12457;50.832;4.346;2022-09-29T01:45:05;24.67;;;11.07;;
24337;SDS011;12457;50.832;4.346;2022-09-29T01:48:20;18.88;;;12.23;;
24337;SDS011;12457;50.832;4.346;2022-09-29T01:50:51;23.88;;;11.07;;
24337;SDS011;12457;50.832;4.346;2022-09-29T01:53:27;21.92;;;11.10;;
24337;SDS011;12457;50.832;4.346;2022-09-29T01:56:00;18.10;;;11.20;;
24337;SDS011;12457;50.832;4.346;2022-09-29T01:58:32;18.65;;;11.20;;
24337;SDS011;12457;50.832;4.346;2022-09-29T02:01:26;19.10;;;10.65;;
24337;SDS011;12457;50.832;4.346;2022-09-29T02:03:58;17.95;;;11.13;;
24337;SDS011;12457;50.832;4.346;2022-09-29T02:06:34;18.35;;;12.15;;
24337;SDS011;12457;50.832;4.346;2022-09-29T02:09:07;19.45;;;11.27;;
24337;SDS011;12457;50.832;4.346;2022-09-29T02:11:36;19.80;;;11.20;;
24337;SDS011;12457;50.832;4.346;2022-09-29T02:14:13;18.63;;;11.02;;
24337;SDS011;12457;50.832;4.346;2022-09-29T02:17:02;17.67;;;11.07;;
24337;SDS011;12457;50.832;4.346;2022-09-29T02:19:35;15.48;;;10.95;;
24337;SDS011;12457;50.832;4.346;2022-09-29T02:22:04;15.85;;;10.90;;
24337;SDS011;12457;50.832;4.346;2022-09-29T02:24:30;16.55;;;10.75;;
24337;SDS011;12457;50.832;4.346;2022-09-29T02:26:56;17.30;;;11.18;;
24337;SDS011;12457;50.832;4.346;2022-09-29T02:29:22;21.63;;;11.55;;
24337;SDS011;12457;50.832;4.346;2022-09-29T02:31:47;17.80;;;11.48;;
24337;SDS011;12457;50.832;4.346;2022-09-29T02:34:15;16.65;;;10.80;;
24337;SDS011;12457;50.832;4.346;2022-09-29T02:40:08;16.52;;;10.02;;
24337;SDS011;12457;50.832;4.346;2022-09-29T02:48:08;24.97;;;11.27;;
24337;SDS011;12457;50.832;4.346;2022-09-29T02:56:30;16.80;;;11.60;;
24337;SDS011;12457;50.832;4.346;2022-09-29T02:59:08;20.85;;;11.05;;
24337;SDS011;12457;50.832;4.346;2022-09-29T03:01:51;15.10;;;9.75;;
24337;SDS011;12457;50.832;4.346;2022-09-29T03:04:19;16.10;;;10.15;;
24337;SDS011;12457;50.832;4.346;2022-09-29T03:06:46;22.52;;;10.10;;
24337;SDS011;12457;50.832;4.346;2022-09-29T03:09:12;24.15;;;10.65;;
24337;SDS011;12457;50.832;4.346;2022-09-29T03:11:37;18.27;;;10.00;;
24337;SDS011;12457;50.832;4.346;2022-09-29T03:14:03;18.88;;;10.35;;
24337;SDS011;12457;50.832;4.346;2022-09-29T03:16:30;16.77;;;10.00;;
24337;SDS011;12457;50.832;4.346;2022-09-29T03:18:57;14.77;;;9.57;;
24337;SDS011;12457;50.832;4.346;2022-09-29T03:21:22;17.38;;;9.57;;
24337;SDS011;12457;50.832;4.346;2022-09-29T03:23:48;22.20;;;10.25;;
24337;SDS011;12457;50.832;4.346;2022-09-29T03:26:14;15.90;;;10.00;;
24337;SDS011;12457;50.832;4.346;2022-09-29T03:28:39;20.08;;;10.02;;
24337;SDS011;12457;50.832;4.346;2022-09-29T03:31:06;22.33;;;10.68;;
24337;SDS011;12457;50.832;4.346;2022-09-29T03:33:33;21.00;;;10.43;;
24337;SDS011;12457;50.832;4.346;2022-09-29T03:36:04;27.27;;;10.75;;
24337;SDS011;12457;50.832;4.346;2022-09-29T03:38:34;18.58;;;10.73;;
24337;SDS011;12457;50.832;4.346;2022-09-29T03:40:59;17.92;;;9.85;;
24337;SDS011;12457;50.832;4.346;2022-09-29T03:43:25;21.15;;;10.10;;
24337;SDS011;12457;50.832;4.346;2022-09-29T03:45:52;24.67;;;10.02;;
24337;SDS011;12457;50.832;4.346;2022-09-29T03:48:19;23.83;;;10.93;;
24337;SDS011;12457;50.832;4.346;2022-09-29T03:50:46;17.17;;;8.85;;
24337;SDS011;12457;50.832;4.346;2022-09-29T03:53:13;16.33;;;8.50;;
24337;SDS011;12457;50.832;4.346;2022-09-29T03:55:39;16.70;;;8.63;;
24337;SDS011;12457;50.832;4.346;2022-09-29T03:58:05;15.18;;;8.50;;
24337;SDS011;12457;50.832;4.346;2022-09-29T04:00:31;20.63;;;8.95;;
24337;SDS011;12457;50.832;4.346;2022-09-29T04:02:57;14.25;;;7.88;;
24337;SDS011;12457;50.832;4.346;2022-09-29T04:05:22;12.02;;;7.60;;
24337;SDS011;12457;50.832;4.346;2022-09-29T04:07:48;12.10;;;6.97;;
24337;SDS011;12457;50.832;4.346;2022-09-29T04:10:14;16.45;;;6.90;;
24337;SDS011;12457;50.832;4.346;2022-09-29T04:12:39;11.60;;;6.82;;
24337;SDS011;12457;50.832;4.346;2022-09-29T04:15:05;9.07;;;6.85;;
24337;SDS011;12457;50.832;4.346;2022-09-29T04:17:32;17.67;;;7.13;;
24337;SDS011;12457;50.832;4.346;2022-09-29T04:19:57;13.48;;;7.18;;
24337;SDS011;12457;50.832;4.346;2022-09-29T04:22:23;11.75;;;7.30;;
24337;SDS011;12457;50.832;4.346;2022-09-29T04:24:48;15.15;;;8.90;;
24337;SDS011;12457;50.832;4.346;2022-09-29T04:27:16;14.50;;;9.18;;
24337;SDS011;12457;50.832;4.346;2022-09-29T04:29:42;16.65;;;7.90;;
24337;SDS011;12457;50.832;4.346;2022-09-29T04:32:08;18.73;;;7.97;;
24337;SDS011;12457;50.832;4.346;2022-09-29T04:34:33;16.23;;;8.43;;
24337;SDS011;12457;50.832;4.346;2022-09-29T04:36:59;16.50;;;8.32;;
24337;SDS011;12457;50.832;4.346;2022-09-29T04:39:25;23.00;;;9.60;;
24337;SDS011;12457;50.832;4.346;2022-09-29T04:41:51;15.93;;;8.32;;
24337;SDS011;12457;50.832;4.346;2022-09-29T04:44:17;19.98;;;9.27;;
24337;SDS011;12457;50.832;4.346;2022-09-29T04:46:48;14.20;;;8.85;;
24337;SDS011;12457;50.832;4.346;2022-09-29T04:49:15;15.70;;;9.25;;
24337;SDS011;12457;50.832;4.346;2022-09-29T04:51:43;16.58;;;8.27;;
24337;SDS011;12457;50.832;4.346;2022-09-29T04:54:09;16.55;;;7.95;;
24337;SDS011;12457;50.832;4.346;2022-09-29T04:56:34;17.58;;;7.95;;
24337;SDS011;12457;50.832;4.346;2022-09-29T04:59:00;14.25;;;7.85;;
24337;SDS011;12457;50.832;4.346;2022-09-29T05:01:25;13.43;;;9.05;;
24337;SDS011;12457;50.832;4.346;2022-09-29T05:03:51;20.90;;;8.98;;
24337;SDS011;12457;50.832;4.346;2022-09-29T05:06:17;22.25;;;8.32;;
24337;SDS011;12457;50.832;4.346;2022-09-29T05:08:43;20.60;;;8.65;;
24337;SDS011;12457;50.832;4.346;2022-09-29T05:11:09;19.55;;;10.32;;
24337;SDS011;12457;50.832;4.346;2022-09-29T05:13:35;13.52;;;7.90;;
24337;SDS011;12457;50.832;4.346;2022-09-29T05:16:02;20.38;;;8.50;;
24337;SDS011;12457;50.832;4.346;2022-09-29T05:18:28;18.88;;;8.73;;
24337;SDS011;12457;50.832;4.346;2022-09-29T05:21:06;27.67;;;10.18;;
24337;SDS011;12457;50.832;4.346;2022-09-29T05:23:35;19.27;;;9.00;;
24337;SDS011;12457;50.832;4.346;2022-09-29T05:26:08;19.75;;;9.32;;
24337;SDS011;12457;50.832;4.346;2022-09-29T05:28:35;15.15;;;9.30;;
24337;SDS011;12457;50.832;4.346;2022-09-29T05:31:02;18.27;;;9.70;;
24337;SDS011;12457;50.832;4.346;2022-09-29T05:33:29;22.88;;;9.95;;
24337;SDS011;12457;50.832;4.346;2022-09-29T05:35:54;20.75;;;9.52;;
24337;SDS011;12457;50.832;4.346;2022-09-29T05:38:20;22.70;;;10.70;;
24337;SDS011;12457;50.832;4.346;2022-09-29T05:40:47;18.95;;;10.35;;
24337;SDS011;12457;50.832;4.346;2022-09-29T05:43:13;21.00;;;9.82;;
24337;SDS011;12457;50.832;4.346;2022-09-29T05:45:38;25.38;;;11.13;;
24337;SDS011;12457;50.832;4.346;2022-09-29T05:48:04;21.20;;;10.82;;
24337;SDS011;12457;50.832;4.346;2022-09-29T05:50:29;60.88;;;18.65;;
24337;SDS011;12457;50.832;4.346;2022-09-29T05:53:00;36.83;;;14.48;;
24337;SDS011;12457;50.832;4.346;2022-09-29T05:55:27;39.95;;;15.45;;
24337;SDS011;12457;50.832;4.346;2022-09-29T05:57:52;23.48;;;12.05;;
24337;SDS011;12457;50.832;4.346;2022-09-29T06:00:18;30.83;;;12.13;;
24337;SDS011;12457;50.832;4.346;2022-09-29T06:02:44;21.45;;;11.40;;
24337;SDS011;12457;50.832;4.346;2022-09-29T06:05:09;22.95;;;11.68;;
24337;SDS011;12457;50.832;4.346;2022-09-29T06:07:35;18.77;;;11.05;;
24337;SDS011;12457;50.832;4.346;2022-09-29T06:10:01;21.58;;;12.13;;
24337;SDS011;12457;50.832;4.346;2022-09-29T06:12:26;29.38;;;11.10;;
24337;SDS011;12457;50.832;4.346;2022-09-29T06:14:52;23.88;;;12.00;;
24337;SDS011;12457;50.832;4.346;2022-09-29T06:17:17;26.13;;;12.07;;
24337;SDS011;12457;50.832;4.346;2022-09-29T06:19:43;26.92;;;11.70;;
24337;SDS011;12457;50.832;4.346;2022-09-29T06:22:09;25.40;;;11.55;;
24337;SDS011;12457;50.832;4.346;2022-09-29T06:24:34;27.27;;;11.48;;
24337;SDS011;12457;50.832;4.346;2022-09-29T06:27:00;32.03;;;12.18;;
24337;SDS011;12457;50.832;4.346;2022-09-29T06:29:26;26.25;;;11.73;;
24337;SDS011;12457;50.832;4.346;2022-09-29T06:31:51;28.92;;;12.15;;
24337;SDS011;12457;50.832;4.346;2022-09-29T06:34:18;30.33;;;11.85;;
24337;SDS011;12457;50.832;4.346;2022-09-29T06:36:43;24.58;;;12.38;;
24337;SDS011;12457;50.832;4.346;2022-09-29T06:39:28;33.38;;;11.32;;
24337;SDS011;12457;50.832;4.346;2022-09-29T06:41:54;33.92;;;11.25;;
24337;SDS011;12457;50.832;4.346;2022-09-29T06:44:21;20.63;;;9.32;;
24337;SDS011;12457;50.832;4.346;2022-09-29T06:46:49;22.58;;;9.95;;
24337;SDS011;12457;50.832;4.346;2022-09-29T06:49:15;22.55;;;9.18;;
24337;SDS011;12457;50.832;4.346;2022-09-29T06:51:42;19.42;;;10.07;;
24337;SDS011;12457;50.832;4.346;2022-09-29T06:54:11;22.65;;;10.88;;
24337;SDS011;12457;50.832;4.346;2022-09-29T06:56:41;18.40;;;9.82;;
24337;SDS011;12457;50.832;4.346;2022-09-29T06:59:10;24.08;;;9.90;;
24337;SDS011;12457;50.832;4.346;2022-09-29T07:01:36;16.33;;;9.18;;
24337;SDS011;12457;50.832;4.346;2022-09-29T07:04:01;24.70;;;10.07;;
24337;SDS011;12457;50.832;4.346;2022-09-29T07:06:27;20.48;;;9.95;;
24337;SDS011;12457;50.832;4.346;2022-09-29T07:08:55;26.15;;;9.35;;
24337;SDS011;12457;50.832;4.346;2022-09-29T07:11:21;25.77;;;9.95;;
24337;SDS011;12457;50.832;4.346;2022-09-29T07:13:48;17.38;;;9.05;;
24337;SDS011;12457;50.832;4.346;2022-09-29T07:16:17;16.77;;;9.40;;
24337;SDS011;12457;50.832;4.346;2022-09-29T07:18:43;20.65;;;9.48;;
24337;SDS011;12457;50.832;4.346;2022-09-29T07:21:11;19.58;;;8.55;;
24337;SDS011;12457;50.832;4.346;2022-09-29T07:23:42;15.90;;;8.93;;
24337;SDS011;12457;50.832;4.346;2022-09-29T07:26:08;18.42;;;8.63;;
24337;SDS011;12457;50.832;4.346;2022-09-29T07:28:34;15.98;;;8.98;;
24337;SDS011;12457;50.832;4.346;2022-09-29T07:31:04;23.02;;;8.57;;
24337;SDS011;12457;50.832;4.346;2022-09-29T07:33:31;16.02;;;8.13;;
24337;SDS011;12457;50.832;4.346;2022-09-29T07:35:57;16.00;;;9.02;;
24337;SDS011;12457;50.832;4.346;2022-09-29T07:38:24;16.73;;;8.60;;
24337;SDS011;12457;50.832;4.346;2022-09-29T07:40:54;18.40;;;8.32;;
24337;SDS011;12457;50.832;4.346;2022-09-29T07:43:42;21.80;;;9.00;;
24337;SDS011;12457;50.832;4.346;2022-09-29T07:46:08;22.15;;;8.23;;
24337;SDS011;12457;50.832;4.346;2022-09-29T07:48:35;17.55;;;8.65;;
24337;SDS011;12457;50.832;4.346;2022-09-29T07:51:05;23.27;;;9.48;;
24337;SDS011;12457;50.832;4.346;2022-09-29T07:53:34;17.17;;;8.35;;
24337;SDS011;12457;50.832;4.346;2022-09-29T07:56:08;16.05;;;7.78;;
24337;SDS011;12457;50.832;4.346;2022-09-29T07:58:34;18.10;;;8.15;;
24337;SDS011;12457;50.832;4.346;2022-09-29T08:01:01;19.30;;;7.88;;
24337;SDS011;12457;50.832;4.346;2022-09-29T08:03:30;18.65;;;8.43;;
24337;SDS011;12457;50.832;4.346;2022-09-29T08:05:56;19.50;;;8.63;;
24337;SDS011;12457;50.832;4.346;2022-09-29T08:08:23;20.45;;;8.55;;
24337;SDS011;12457;50.832;4.346;2022-09-29T08:10:49;21.80;;;9.63;;
24337;SDS011;12457;50.832;4.346;2022-09-29T08:13:15;23.70;;;10.10;;
24337;SDS011;12457;50.832;4.346;2022-09-29T08:15:41;19.15;;;10.23;;
24337;SDS011;12457;50.832;4.346;2022-09-29T08:18:06;21.05;;;9.48;;
24337;SDS011;12457;50.832;4.346;2022-09-29T08:20:33;25.33;;;11.85;;
24337;SDS011;12457;50.832;4.346;2022-09-29T08:23:00;20.55;;;9.40;;
24337;SDS011;12457;50.832;4.346;2022-09-29T08:25:25;25.23;;;9.70;;
24337;SDS011;12457;50.832;4.346;2022-09-29T08:27:51;22.15;;;9.80;;
24337;SDS011;12457;50.832;4.346;2022-09-29T08:30:17;18.60;;;8.68;;
24337;SDS011;12457;50.832;4.346;2022-09-29T08:32:43;21.10;;;9.25;;
24337;SDS011;12457;50.832;4.346;2022-09-29T08:35:15;25.25;;;9.65;;
24337;SDS011;12457;50.832;4.346;2022-09-29T08:37:41;19.58;;;8.38;;
24337;SDS011;12457;50.832;4.346;2022-09-29T08:40:06;19.02;;;7.95;;
24337;SDS011;12457;50.832;4.346;2022-09-29T08:45:13;21.50;;;8.40;;
24337;SDS011;12457;50.832;4.346;2022-09-29T08:47:51;18.67;;;8.75;;
24337;SDS011;12457;50.832;4.346;2022-09-29T08:53:08;16.17;;;7.82;;
24337;SDS011;12457;50.832;4.346;2022-09-29T08:58:23;16.95;;;7.13;;
24337;SDS011;12457;50.832;4.346;2022-09-29T09:00:52;21.45;;;7.93;;
24337;SDS011;12457;50.832;4.346;2022-09-29T09:09:01;14.60;;;7.93;;
24337;SDS011;12457;50.832;4.346;2022-09-29T09:11:42;18.40;;;7.50;;
24337;SDS011;12457;50.832;4.346;2022-09-29T09:16:46;19.15;;;6.22;;
24337;SDS011;12457;50.832;4.346;2022-09-29T09:22:50;13.00;;;6.47;;
24337;SDS011;12457;50.832;4.346;2022-09-29T09:30:36;16.63;;;6.72;;
24337;SDS011;12457;50.832;4.346;2022-09-29T09:33:09;9.80;;;5.80;;
24337;SDS011;12457;50.832;4.346;2022-09-29T09:35:51;11.90;;;7.65;;
24337;SDS011;12457;50.832;4.346;2022-09-29T09:38:24;14.40;;;6.35;;
24337;SDS011;12457;50.832;4.346;2022-09-29T09:40:53;24.50;;;8.85;;
24337;SDS011;12457;50.832;4.346;2022-09-29T09:43:24;14.32;;;7.75;;
24337;SDS011;12457;50.832;4.346;2022-09-29T09:45:59;9.00;;;5.13;;
24337;SDS011;12457;50.832;4.346;2022-09-29T09:48:43;12.40;;;6.53;;
24337;SDS011;12457;50.832;4.346;2022-09-29T09:54:32;17.77;;;7.70;;
24337;SDS011;12457;50.832;4.346;2022-09-29T10:00:05;17.17;;;6.53;;
24337;SDS011;12457;50.832;4.346;2022-09-29T10:02:37;13.32;;;6.00;;
24337;SDS011;12457;50.832;4.346;2022-09-29T10:05:14;10.85;;;4.88;;
24337;SDS011;12457;50.832;4.346;2022-09-29T10:07:44;12.55;;;5.50;;
24337;SDS011;12457;50.832;4.346;2022-09-29T10:10:22;25.13;;;11.05;;
24337;SDS011;12457;50.832;4.346;2022-09-29T10:13:14;10.15;;;5.85;;
24337;SDS011;12457;50.832;4.346;2022-09-29T10:18:47;10.93;;;4.03;;
24337;SDS011;12457;50.832;4.346;2022-09-29T10:21:18;9.27;;;4.07;;
24337;SDS011;12457;50.832;4.346;2022-09-29T10:23:53;7.00;;;4.30;;
24337;SDS011;12457;50.832;4.346;2022-09-29T10:26:27;9.98;;;4.93;;
24337;SDS011;12457;50.832;4.346;2022-09-29T10:32:08;7.68;;;4.70;;
24337;SDS011;12457;50.832;4.346;2022-09-29T10:34:43;11.02;;;4.28;;
24337;SDS011;12457;50.832;4.346;2022-09-29T10:37:22;8.63;;;4.93;;
24337;SDS011;12457;50.832;4.346;2022-09-29T10:42:37;12.15;;;4.35;;
24337;SDS011;12457;50.832;4.346;2022-09-29T10:45:13;7.78;;;3.45;;
24337;SDS011;12457;50.832;4.346;2022-09-29T10:50:34;9.05;;;2.65;;
24337;SDS011;12457;50.832;4.346;2022-09-29T10:56:21;5.30;;;3.50;;
24337;SDS011;12457;50.832;4.346;2022-09-29T10:58:52;2.80;;;2.00;;
24337;SDS011;12457;50.832;4.346;2022-09-29T11:01:20;4.78;;;1.90;;
24337;SDS011;12457;50.832;4.346;2022-09-29T11:03:47;3.50;;;1.90;;
24337;SDS011;12457;50.832;4.346;2022-09-29T11:06:28;6.68;;;2.10;;
24337;SDS011;12457;50.832;4.346;2022-09-29T11:09:05;6.53;;;3.13;;
24337;SDS011;12457;50.832;4.346;2022-09-29T11:11:53;5.72;;;2.50;;
24337;SDS011;12457;50.832;4.346;2022-09-29T11:17:02;5.57;;;2.10;;
24337;SDS011;12457;50.832;4.346;2022-09-29T11:19:50;3.55;;;1.98;;
24337;SDS011;12457;50.832;4.346;2022-09-29T11:27:27;8.50;;;2.00;;
24337;SDS011;12457;50.832;4.346;2022-09-29T11:30:15;5.78;;;2.08;;
24337;SDS011;12457;50.832;4.346;2022-09-29T11:35:43;15.38;;;9.65;;
24337;SDS011;12457;50.832;4.346;2022-09-29T11:41:13;3.33;;;1.97;;
24337;SDS011;12457;50.832;4.346;2022-09-29T12:01:20;4.47;;;1.75;;
24337;SDS011;12457;50.832;4.346;2022-09-29T12:07:03;3.47;;;1.65;;
24337;SDS011;12457;50.832;4.346;2022-09-29T12:09:41;5.15;;;1.58;;
24337;SDS011;12457;50.832;4.346;2022-09-29T12:12:33;2.17;;;1.73;;
24337;SDS011;12457;50.832;4.346;2022-09-29T12:17:46;4.47;;;2.80;;
24337;SDS011;12457;50.832;4.346;2022-09-29T12:20:20;13.90;;;4.20;;
24337;SDS011;12457;50.832;4.346;2022-09-29T12:22:59;6.05;;;2.15;;
24337;SDS011;12457;50.832;4.346;2022-09-29T12:25:28;3.90;;;1.60;;
24337;SDS011;12457;50.832;4.346;2022-09-29T12:27:59;3.17;;;1.55;;
24337;SDS011;12457;50.832;4.346;2022-09-29T12:30:49;7.38;;;1.75;;
24337;SDS011;12457;50.832;4.346;2022-09-29T12:33:24;2.78;;;1.65;;
24337;SDS011;12457;50.832;4.346;2022-09-29T12:38:51;2.65;;;1.65;;
24337;SDS011;12457;50.832;4.346;2022-09-29T12:41:24;2.55;;;1.40;;
24337;SDS011;12457;50.832;4.346;2022-09-29T12:46:43;1.55;;;1.20;;
24337;SDS011;12457;50.832;4.346;2022-09-29T12:52:09;2.38;;;1.40;;
24337;SDS011;12457;50.832;4.346;2022-09-29T12:54:47;3.38;;;1.60;;
24337;SDS011;12457;50.832;4.346;2022-09-29T12:57:19;2.83;;;1.30;;
24337;SDS011;12457;50.832;4.346;2022-09-29T13:00:12;1.52;;;0.93;;
24337;SDS011;12457;50.832;4.346;2022-09-29T13:11:36;5.95;;;1.00;;
24337;SDS011;12457;50.832;4.346;2022-09-29T13:22:28;4.80;;;1.80;;
24337;SDS011;12457;50.832;4.346;2022-09-29T13:25:21;2.63;;;1.20;;
24337;SDS011;12457;50.832;4.346;2022-09-29T13:28:00;2.50;;;1.27;;
24337;SDS011;12457;50.832;4.346;2022-09-29T13:30:45;4.30;;;1.40;;
24337;SDS011;12457;50.832;4.346;2022-09-29T13:33:15;1.58;;;1.20;;
24337;SDS011;12457;50.832;4.346;2022-09-29T13:35:46;2.75;;;1.02;;
24337;SDS011;12457;50.832;4.346;2022-09-29T13:38:16;3.97;;;1.40;;
24337;SDS011;12457;50.832;4.346;2022-09-29T13:41:07;2.45;;;1.20;;
24337;SDS011;12457;50.832;4.346;2022-09-29T13:46:25;1.73;;;1.00;;
24337;SDS011;12457;50.832;4.346;2022-09-29T13:51:41;1.77;;;1.10;;
24337;SDS011;12457;50.832;4.346;2022-09-29T13:54:21;2.72;;;1.10;;
24337;SDS011;12457;50.832;4.346;2022-09-29T13:59:45;3.42;;;1.15;;
24337;SDS011;12457;50.832;4.346;2022-09-29T14:02:17;7.20;;;1.27;;
24337;SDS011;12457;50.832;4.346;2022-09-29T14:10:19;3.63;;;2.05;;
24337;SDS011;12457;50.832;4.346;2022-09-29T14:12:49;4.60;;;2.20;;
24337;SDS011;12457;50.832;4.346;2022-09-29T14:15:23;1.90;;;0.90;;
24337;SDS011;12457;50.832;4.346;2022-09-29T14:17:56;2.95;;;1.13;;
24337;SDS011;12457;50.832;4.346;2022-09-29T14:20:30;6.07;;;1.55;;
24337;SDS011;12457;50.832;4.346;2022-09-29T14:22:58;1.98;;;1.08;;
24337;SDS011;12457;50.832;4.346;2022-09-29T14:28:27;9.07;;;1.65;;
24337;SDS011;12457;50.832;4.346;2022-09-29T14:30:59;7.75;;;1.77;;
24337;SDS011;12457;50.832;4.346;2022-09-29T14:33:33;4.32;;;1.90;;
24337;SDS011;12457;50.832;4.346;2022-09-29T14:36:09;9.63;;;2.55;;
24337;SDS011;12457;50.832;4.346;2022-09-29T14:38:45;6.40;;;1.70;;
24337;SDS011;12457;50.832;4.346;2022-09-29T14:41:27;7.28;;;2.17;;
24337;SDS011;12457;50.832;4.346;2022-09-29T14:43:58;7.90;;;1.55;;
24337;SDS011;12457;50.832;4.346;2022-09-29T14:47:01;6.00;;;1.98;;
24337;SDS011;12457;50.832;4.346;2022-09-29T14:50:07;2.63;;;1.42;;
24337;SDS011;12457;50.832;4.346;2022-09-29T14:56:15;4.03;;;1.50;;
24337;SDS011;12457;50.832;4.346;2022-09-29T15:01:39;5.47;;;1.90;;
24337;SDS011;12457;50.832;4.346;2022-09-29T15:04:40;6.38;;;3.28;;
24337;SDS011;12457;50.832;4.346;2022-09-29T15:07:14;4.07;;;2.17;;
24337;SDS011;12457;50.832;4.346;2022-09-29T15:09:49;5.65;;;1.92;;
24337;SDS011;12457;50.832;4.346;2022-09-29T15:12:26;5.18;;;1.50;;
24337;SDS011;12457;50.832;4.346;2022-09-29T15:14:54;3.60;;;1.50;;
24337;SDS011;12457;50.832;4.346;2022-09-29T15:28:16;10.13;;;2.30;;
24337;SDS011;12457;50.832;4.346;2022-09-29T15:30:54;5.93;;;2.90;;
24337;SDS011;12457;50.832;4.346;2022-09-29T15:33:27;5.85;;;2.42;;
24337;SDS011;12457;50.832;4.346;2022-09-29T15:35:56;10.05;;;2.72;;
24337;SDS011;12457;50.832;4.346;2022-09-29T15:38:41;11.23;;;2.55;;
24337;SDS011;12457;50.832;4.346;2022-09-29T15:43:39;5.10;;;2.30;;
24337;SDS011;12457;50.832;4.346;2022-09-29T15:49:48;5.60;;;2.22;;
24337;SDS011;12457;50.832;4.346;2022-09-29T15:51:45;10.52;;;2.47;;
24337;SDS011;12457;50.832;4.346;2022-09-29T15:54:37;6.10;;;2.72;;
24337;SDS011;12457;50.832;4.346;2022-09-29T15:57:09;8.55;;;3.05;;
24337;SDS011;12457;50.832;4.346;2022-09-29T16:05:26;9.93;;;2.80;;
24337;SDS011;12457;50.832;4.346;2022-09-29T16:08:01;4.85;;;2.45;;
24337;SDS011;12457;50.832;4.346;2022-09-29T16:10:55;3.85;;;1.90;;
24337;SDS011;12457;50.832;4.346;2022-09-29T16:13:25;5.00;;;2.72;;
24337;SDS011;12457;50.832;4.346;2022-09-29T16:15:55;6.25;;;3.00;;
24337;SDS011;12457;50.832;4.346;2022-09-29T16:18:36;5.57;;;2.40;;
24337;SDS011;12457;50.832;4.346;2022-09-29T16:21:07;6.32;;;3.00;;
24337;SDS011;12457;50.832;4.346;2022-09-29T16:23:43;8.82;;;2.60;;
24337;SDS011;12457;50.832;4.346;2022-09-29T16:31:34;7.03;;;3.40;;
24337;SDS011;12457;50.832;4.346;2022-09-29T16:36:46;15.80;;;3.47;;
24337;SDS011;12457;50.832;4.346;2022-09-29T16:39:14;4.50;;;2.47;;
24337;SDS011;12457;50.832;4.346;2022-09-29T16:41:41;4.43;;;2.50;;
24337;SDS011;12457;50.832;4.346;2022-09-29T16:49:21;6.30;;;2.75;;
24337;SDS011;12457;50.832;4.346;2022-09-29T16:54:45;7.28;;;2.80;;
24337;SDS011;12457;50.832;4.346;2022-09-29T16:57:25;6.30;;;3.00;;
24337;SDS011;12457;50.832;4.346;2022-09-29T16:59:58;7.32;;;2.85;;
24337;SDS011;12457;50.832;4.346;2022-09-29T17:02:25;5.35;;;2.80;;
24337;SDS011;12457;50.832;4.346;2022-09-29T17:04:52;9.15;;;3.38;;
24337;SDS011;12457;50.832;4.346;2022-09-29T17:07:20;6.80;;;3.35;;
24337;SDS011;12457;50.832;4.346;2022-09-29T17:09:49;6.55;;;2.92;;
24337;SDS011;12457;50.832;4.346;2022-09-29T17:12:20;9.93;;;3.50;;
24337;SDS011;12457;50.832;4.346;2022-09-29T17:14:46;4.88;;;2.78;;
24337;SDS011;12457;50.832;4.346;2022-09-29T17:17:17;4.70;;;3.03;;
24337;SDS011;12457;50.832;4.346;2022-09-29T17:19:48;9.70;;;3.95;;
24337;SDS011;12457;50.832;4.346;2022-09-29T17:22:19;11.05;;;4.45;;
24337;SDS011;12457;50.832;4.346;2022-09-29T17:24:53;5.18;;;3.22;;
24337;SDS011;12457;50.832;4.346;2022-09-29T17:27:19;15.63;;;4.72;;
24337;SDS011;12457;50.832;4.346;2022-09-29T17:30:03;7.07;;;2.60;;
24337;SDS011;12457;50.832;4.346;2022-09-29T17:32:30;8.90;;;3.80;;
24337;SDS011;12457;50.832;4.346;2022-09-29T17:34:55;15.88;;;6.40;;
24337;SDS011;12457;50.832;4.346;2022-09-29T17:37:22;15.90;;;6.13;;
24337;SDS011;12457;50.832;4.346;2022-09-29T17:39:47;9.90;;;4.60;;
24337;SDS011;12457;50.832;4.346;2022-09-29T17:42:13;8.98;;;3.53;;
24337;SDS011;12457;50.832;4.346;2022-09-29T17:44:38;3.85;;;2.25;;
24337;SDS011;12457;50.832;4.346;2022-09-29T17:47:14;6.18;;;2.83;;
24337;SDS011;12457;50.832;4.346;2022-09-29T17:49:41;9.82;;;3.38;;
24337;SDS011;12457;50.832;4.346;2022-09-29T17:52:09;9.02;;;4.60;;
24337;SDS011;12457;50.832;4.346;2022-09-29T17:54:39;12.85;;;4.93;;
24337;SDS011;12457;50.832;4.346;2022-09-29T17:57:05;7.38;;;3.42;;
24337;SDS011;12457;50.832;4.346;2022-09-29T17:59:33;5.38;;;3.60;;
24337;SDS011;12457;50.832;4.346;2022-09-29T18:02:08;11.55;;;3.70;;
24337;SDS011;12457;50.832;4.346;2022-09-29T18:04:36;7.80;;;3.55;;
24337;SDS011;12457;50.832;4.346;2022-09-29T18:07:05;6.40;;;2.95;;
24337;SDS011;12457;50.832;4.346;2022-09-29T18:09:31;10.23;;;3.50;;
24337;SDS011;12457;50.832;4.346;2022-09-29T18:11:56;5.47;;;2.58;;
24337;SDS011;12457;50.832;4.346;2022-09-29T18:14:23;4.32;;;2.47;;
24337;SDS011;12457;50.832;4.346;2022-09-29T18:16:49;3.17;;;2.22;;
24337;SDS011;12457;50.832;4.346;2022-09-29T18:19:15;10.73;;;3.08;;
24337;SDS011;12457;50.832;4.346;2022-09-29T18:21:41;4.90;;;3.45;;
24337;SDS011;12457;50.832;4.346;2022-09-29T18:24:07;7.95;;;3.05;;
24337;SDS011;12457;50.832;4.346;2022-09-29T18:26:34;7.25;;;4.40;;